This is the latest recevied weather packets stored in our database for station/object DL1SEW-6. If no packets are shown the sender has not sent any weather packets the latest 10 day(s).
| Time | Temp. | Humidity | Pressure | Rain* | Wind** | Luminosity | Snow |
|---|---|---|---|---|---|---|---|
| 1787397897 | 16.67° C | 70% | 1020.1 hPa | 0 mm | - | 670 W/m² | - |
| 1787396997 | 17.22° C | 69% | 1020.1 hPa | 0 mm | - | 204 W/m² | - |
| 1787396096 | 18.89° C | 58% | 1019.8 hPa | 0 mm | - | 143 W/m² | - |
| 1787395196 | 18.89° C | 58% | 1019.5 hPa | 0 mm | - | 1088 W/m² | - |
| 1787394297 | 18.89° C | 58% | 1019.5 hPa | 0 mm | - | 306 W/m² | - |
| 1787393396 | 18.89° C | 60% | 1019.5 hPa | 0 mm | - | 846 W/m² | - |
| 1787392497 | 18.89° C | 61% | 1019.6 hPa | 0 mm | - | 789 W/m² | - |
| 1787391596 | 17.78° C | 65% | 1019.4 hPa | 0 mm | - | 943 W/m² | - |
| 1787390695 | 16.67° C | 66% | 1019.2 hPa | 0 mm | - | 403 W/m² | - |
| 1787389797 | 16.67° C | 72% | 1019.2 hPa | 0 mm | - | 625 W/m² | - |
| 1787388897 | 16.11° C | 71% | 1019 hPa | 0 mm | - | 158 W/m² | - |
| 1787387996 | 16.67° C | 71% | 1019 hPa | 0 mm | - | 165 W/m² | - |
| 1787387095 | 16.67° C | 73% | 1018.6 hPa | 0 mm | - | 393 W/m² | - |
| 1787386194 | 15.56° C | 77% | 1018.4 hPa | 0 mm | - | 768 W/m² | - |
| 1787385295 | 15° C | 75% | 1018.2 hPa | 0 mm | - | 158 W/m² | - |
| 1787384394 | 15.56° C | 76% | 1018.2 hPa | 0 mm | - | 148 W/m² | - |
| 1787383494 | 15.56° C | 76% | 1018.1 hPa | 0 mm | - | 212 W/m² | - |
| 1787382600 | 15° C | 77% | 1017.8 hPa | 0 mm | - | 403 W/m² | - |
| 1787381700 | 15° C | 78% | 1017.7 hPa | 0 mm | - | 352 W/m² | - |
| 1787380799 | 14.44° C | 80% | 1017.3 hPa | 0 mm | - | 306 W/m² | - |
| 1787379898 | 13.89° C | 81% | 1017.1 hPa | 0 mm | - | 269 W/m² | - |
| 1787378999 | 13.33° C | 82% | 1016.8 hPa | 0 mm | - | 227 W/m² | - |
| 1787378098 | 12.78° C | 83% | 1016.5 hPa | 0 mm | - | 192 W/m² | - |
| 1787377200 | 12.22° C | 85% | 1016.3 hPa | 0 mm | - | 151 W/m² | - |
| 1787376298 | 11.67° C | 86% | 1016 hPa | 0 mm | - | 106 W/m² | - |
* Rain latest hour (hover to see other rain measurements)
** Current wind speed in m/s (hover to see current wind gust speed)